Time;durP1;ratioP1;P1;durP2;ratioP2;P2;SDS_P1;SDS_P2;PMS_P1;PMS_P2;Temp;Humidity;BMP_temperature;BMP_pressure;BME280_temperature;BME280_humidity;BME280_pressure;Samples;Min_cycle;Max_cycle;Signal;HPM_P1;HPM_P2
2022/04/21 00:00:52;;;;;;;7.95;3.33;;;;;;;;;;5057182;28;20497;-68
2022/04/21 00:03:18;;;;;;;10.35;3.35;;;;;;;;;;5058927;28;20033;-69
2022/04/21 00:05:44;;;;;;;5.82;3.42;;;;;;;;;;5062823;28;20528;-68
2022/04/21 00:08:11;;;;;;;5.65;3.70;;;;;;;;;;5065201;28;20052;-67
2022/04/21 00:10:37;;;;;;;4.75;3.10;;;;;;;;;;5057455;28;20071;-68
2022/04/21 00:13:03;;;;;;;5.70;2.95;;;;;;;;;;5048276;28;20025;-67
2022/04/21 00:15:29;;;;;;;5.63;3.22;;;;;;;;;;5058278;28;20033;-68
2022/04/21 00:17:55;;;;;;;9.00;3.33;;;;;;;;;;5046373;28;20028;-67
2022/04/21 00:20:21;;;;;;;6.07;3.20;;;;;;;;;;5060289;28;20052;-67
2022/04/21 00:25:37;;;;;;;7.97;3.13;;;;;;;;;;5054863;28;20083;-68
2022/04/21 00:28:05;;;;;;;11.07;3.80;;;;;;;;;;5050906;28;20417;-67
2022/04/21 00:30:31;;;;;;;7.18;3.65;;;;;;;;;;5043862;28;20025;-68
2022/04/21 00:32:57;;;;;;;9.27;3.90;;;;;;;;;;5059739;28;20025;-67
2022/04/21 00:35:23;;;;;;;4.28;3.08;;;;;;;;;;5057051;28;20029;-69
2022/04/21 00:37:52;;;;;;;4.65;3.13;;;;;;;;;;5048042;28;20474;-68
2022/04/21 00:40:19;;;;;;;4.47;3.28;;;;;;;;;;5039358;28;20541;-67
2022/04/21 00:42:45;;;;;;;7.43;3.60;;;;;;;;;;5057082;28;20497;-68
2022/04/21 00:45:12;;;;;;;5.10;3.30;;;;;;;;;;5056476;28;20017;-67
2022/04/21 00:47:42;;;;;;;6.32;3.15;;;;;;;;;;5047413;28;20482;-68
2022/04/21 00:50:18;;;;;;;7.22;3.30;;;;;;;;;;5056949;28;20090;-67
2022/04/21 00:52:45;;;;;;;5.22;3.22;;;;;;;;;;5054242;28;20027;-67
2022/04/21 00:55:11;;;;;;;6.35;2.88;;;;;;;;;;5040707;28;20048;-68
2022/04/21 00:57:38;;;;;;;8.05;3.55;;;;;;;;;;5056696;28;20017;-67
2022/04/21 01:00:05;;;;;;;6.85;3.25;;;;;;;;;;5048576;28;20043;-68
2022/04/21 01:02:49;;;;;;;5.85;3.65;;;;;;;;;;5055342;28;20016;-68
2022/04/21 01:05:25;;;;;;;3.95;3.00;;;;;;;;;;5038954;28;20370;-68
2022/04/21 01:07:51;;;;;;;6.25;3.13;;;;;;;;;;5056964;28;20029;-67
2022/04/21 01:10:17;;;;;;;11.63;3.75;;;;;;;;;;5048607;28;20404;-69
2022/04/21 01:12:44;;;;;;;6.50;3.53;;;;;;;;;;5061888;28;20029;-68
2022/04/21 01:15:10;;;;;;;6.85;3.13;;;;;;;;;;5052787;28;20117;-69
2022/04/21 01:17:37;;;;;;;6.10;3.80;;;;;;;;;;5040904;28;20092;-67
2022/04/21 01:20:04;;;;;;;6.03;3.33;;;;;;;;;;5046636;28;20060;-68
2022/04/21 01:22:30;;;;;;;8.40;3.47;;;;;;;;;;5059338;28;20060;-68
2022/04/21 01:24:57;;;;;;;6.05;3.63;;;;;;;;;;5060952;28;20028;-68
2022/04/21 01:27:26;;;;;;;4.43;3.10;;;;;;;;;;5050867;28;20033;-67
2022/04/21 01:29:52;;;;;;;5.20;3.20;;;;;;;;;;5068495;28;20430;-68
2022/04/21 01:32:18;;;;;;;6.13;3.45;;;;;;;;;;5057488;28;20268;-69
2022/04/21 01:34:44;;;;;;;7.72;3.72;;;;;;;;;;5031272;28;20026;-67
2022/04/21 01:42:39;;;;;;;5.07;3.45;;;;;;;;;;5058653;28;20269;-68
2022/04/21 01:45:05;;;;;;;4.65;3.50;;;;;;;;;;5051439;28;20024;-68
2022/04/21 01:47:31;;;;;;;5.43;3.30;;;;;;;;;;5045366;28;20605;-67
2022/04/21 01:49:57;;;;;;;5.53;3.33;;;;;;;;;;5054459;28;20104;-68
2022/04/21 01:52:23;;;;;;;6.88;3.35;;;;;;;;;;5059125;28;20028;-67
2022/04/21 01:54:50;;;;;;;6.25;3.30;;;;;;;;;;5051430;28;20085;-68
2022/04/21 01:57:20;;;;;;;4.93;3.17;;;;;;;;;;5051518;28;20029;-68
2022/04/21 01:59:49;;;;;;;9.27;4.03;;;;;;;;;;5057553;28;20036;-68
2022/04/21 02:02:15;;;;;;;5.45;3.50;;;;;;;;;;5068873;28;20029;-68
2022/04/21 02:04:41;;;;;;;10.25;3.38;;;;;;;;;;5037802;28;20035;-68
2022/04/21 02:07:07;;;;;;;8.65;4.10;;;;;;;;;;5032491;28;20506;-69
2022/04/21 02:09:33;;;;;;;8.45;3.90;;;;;;;;;;5043995;28;20029;-67
2022/04/21 02:11:59;;;;;;;8.35;3.85;;;;;;;;;;5060253;28;20237;-67
2022/04/21 02:14:25;;;;;;;6.53;3.67;;;;;;;;;;5050060;28;20036;-68
2022/04/21 02:16:51;;;;;;;5.82;3.55;;;;;;;;;;5050298;28;20033;-68
2022/04/21 02:19:17;;;;;;;5.80;3.60;;;;;;;;;;5051116;28;20083;-68
2022/04/21 02:21:43;;;;;;;7.63;3.80;;;;;;;;;;5049517;28;20461;-68
2022/04/21 02:24:09;;;;;;;6.13;3.55;;;;;;;;;;5040108;28;20516;-67
2022/04/21 02:26:35;;;;;;;6.38;3.95;;;;;;;;;;5051209;28;20009;-68
2022/04/21 02:29:01;;;;;;;5.97;3.83;;;;;;;;;;5066264;28;20489;-68
2022/04/21 02:31:27;;;;;;;11.93;4.00;;;;;;;;;;5052990;28;20024;-68
2022/04/21 02:33:53;;;;;;;7.53;3.75;;;;;;;;;;5055177;28;20107;-69
2022/04/21 02:36:19;;;;;;;9.15;3.88;;;;;;;;;;5067084;28;20099;-68
2022/04/21 02:38:45;;;;;;;4.00;3.05;;;;;;;;;;5050307;28;20017;-68
2022/04/21 02:41:12;;;;;;;11.15;4.30;;;;;;;;;;5051067;28;20127;-67
2022/04/21 02:43:38;;;;;;;5.70;3.75;;;;;;;;;;5058056;28;20517;-68
2022/04/21 02:46:04;;;;;;;7.03;3.97;;;;;;;;;;5032326;28;20056;-68
2022/04/21 02:48:30;;;;;;;7.05;4.10;;;;;;;;;;5026180;28;20111;-68
2022/04/21 02:50:56;;;;;;;8.90;4.47;;;;;;;;;;5049560;28;20071;-67
2022/04/21 02:57:19;;;;;;;10.98;5.07;;;;;;;;;;5066640;28;20052;-69
2022/04/21 02:58:53;;;;;;;5.47;4.20;;;;;;;;;;5064458;28;20071;-69
2022/04/21 03:01:19;;;;;;;8.23;4.75;;;;;;;;;;5044593;28;20437;-69
2022/04/21 03:03:45;;;;;;;8.50;5.35;;;;;;;;;;5059213;28;20017;-68
2022/04/21 03:06:12;;;;;;;6.30;4.60;;;;;;;;;;5050044;28;20017;-68
2022/04/21 03:08:38;;;;;;;6.18;4.80;;;;;;;;;;5062593;28;20091;-68
2022/04/21 03:11:04;;;;;;;8.05;4.85;;;;;;;;;;5069710;28;20115;-68
2022/04/21 03:13:30;;;;;;;9.95;4.95;;;;;;;;;;5050516;28;20107;-68
2022/04/21 03:15:56;;;;;;;8.48;5.47;;;;;;;;;;5050814;28;20048;-70
2022/04/21 03:18:22;;;;;;;7.97;5.13;;;;;;;;;;5031085;28;20488;-68
2022/04/21 03:26:17;;;;;;;7.45;5.47;;;;;;;;;;5051138;28;20445;-68
2022/04/21 03:28:44;;;;;;;9.65;5.47;;;;;;;;;;5056070;28;20025;-67
2022/04/21 03:31:10;;;;;;;11.10;6.10;;;;;;;;;;5057989;28;20066;-69
2022/04/21 03:33:36;;;;;;;8.13;5.97;;;;;;;;;;5066004;28;20107;-67
2022/04/21 03:36:03;;;;;;;9.30;6.15;;;;;;;;;;5047279;28;20502;-67
2022/04/21 03:38:29;;;;;;;9.98;5.97;;;;;;;;;;5046235;28;20065;-68
2022/04/21 03:40:56;;;;;;;7.60;6.05;;;;;;;;;;5056021;28;20443;-68
2022/04/21 03:43:22;;;;;;;9.23;6.22;;;;;;;;;;5051340;28;20031;-68
2022/04/21 03:45:49;;;;;;;9.88;6.35;;;;;;;;;;5049864;28;20021;-68
2022/04/21 03:48:16;;;;;;;8.68;6.57;;;;;;;;;;5056744;28;20017;-68
2022/04/21 03:50:43;;;;;;;12.07;6.65;;;;;;;;;;5052587;28;20060;-67
2022/04/21 03:53:09;;;;;;;12.18;6.30;;;;;;;;;;5060507;28;20413;-68
2022/04/21 03:55:38;;;;;;;11.75;6.70;;;;;;;;;;5057438;28;20029;-69
2022/04/21 03:58:04;;;;;;;10.55;6.68;;;;;;;;;;5049117;28;20390;-67
2022/04/21 04:00:30;;;;;;;14.73;6.10;;;;;;;;;;5051132;28;20512;-68
2022/04/21 04:02:56;;;;;;;9.43;6.40;;;;;;;;;;5064378;28;20561;-68
2022/04/21 04:05:22;;;;;;;9.40;6.68;;;;;;;;;;5040681;28;20119;-69
2022/04/21 04:13:32;;;;;;;10.20;7.00;;;;;;;;;;4995823;28;20033;-67
2022/04/21 04:16:00;;;;;;;16.08;7.25;;;;;;;;;;4982700;28;20061;-68
2022/04/21 04:18:26;;;;;;;9.85;6.78;;;;;;;;;;4976231;28;20026;-68
2022/04/21 04:20:52;;;;;;;13.65;6.72;;;;;;;;;;4999118;28;20113;-69
2022/04/21 04:23:18;;;;;;;8.95;6.97;;;;;;;;;;4981111;28;20128;-67
2022/04/21 04:25:44;;;;;;;12.65;6.97;;;;;;;;;;4993768;28;20018;-68
2022/04/21 04:28:11;;;;;;;17.45;7.55;;;;;;;;;;4989971;28;20129;-69
2022/04/21 04:30:40;;;;;;;16.30;7.90;;;;;;;;;;5003388;28;20349;-68
2022/04/21 04:33:06;;;;;;;9.88;6.70;;;;;;;;;;4971408;28;20105;-69
2022/04/21 04:35:32;;;;;;;12.13;6.45;;;;;;;;;;4986089;28;20054;-68
2022/04/21 04:37:59;;;;;;;10.32;6.25;;;;;;;;;;4991959;28;20026;-67
2022/04/21 04:40:28;;;;;;;10.18;6.43;;;;;;;;;;4988746;28;20040;-67
2022/04/21 04:42:54;;;;;;;12.20;6.75;;;;;;;;;;4998861;28;20034;-69
2022/04/21 04:48:05;;;;;;;16.77;7.65;;;;;;;;;;5010652;28;20389;-68
2022/04/21 04:50:31;;;;;;;11.68;7.57;;;;;;;;;;5048984;28;20029;-69
2022/04/21 04:53:00;;;;;;;11.85;6.30;;;;;;;;;;5048632;28;20032;-68
2022/04/21 04:55:27;;;;;;;11.93;7.63;;;;;;;;;;5056949;28;20089;-68
2022/04/21 04:57:53;;;;;;;16.35;8.38;;;;;;;;;;5054406;28;20013;-67
2022/04/21 05:00:20;;;;;;;11.05;7.57;;;;;;;;;;5052263;28;20512;-69
2022/04/21 05:02:46;;;;;;;16.52;7.00;;;;;;;;;;5055909;28;20036;-70
2022/04/21 05:05:12;;;;;;;28.35;13.07;;;;;;;;;;5050524;28;20047;-70
2022/04/21 05:07:41;;;;;;;48.10;19.88;;;;;;;;;;5052365;28;20493;-70
2022/04/21 05:10:08;;;;;;;41.03;16.43;;;;;;;;;;5054253;28;20083;-69
2022/04/21 05:12:35;;;;;;;18.95;10.02;;;;;;;;;;5055030;28;20278;-69
2022/04/21 05:15:00;;;;;;;17.10;9.00;;;;;;;;;;5065710;28;20024;-69
2022/04/21 05:17:27;;;;;;;18.85;7.90;;;;;;;;;;5036944;28;20032;-70
2022/04/21 05:19:53;;;;;;;12.82;7.18;;;;;;;;;;5054014;28;20021;-70
2022/04/21 05:22:24;;;;;;;12.80;7.13;;;;;;;;;;5061173;28;20153;-70
2022/04/21 05:24:52;;;;;;;17.63;7.57;;;;;;;;;;5046563;28;20025;-69
2022/04/21 05:27:18;;;;;;;12.95;8.23;;;;;;;;;;5061680;28;20445;-69
2022/04/21 05:32:29;;;;;;;18.60;8.50;;;;;;;;;;5061778;28;20115;-70
2022/04/21 05:34:55;;;;;;;17.60;9.73;;;;;;;;;;5061706;28;20024;-70
2022/04/21 05:37:21;;;;;;;23.27;11.68;;;;;;;;;;5060886;28;20040;-70
2022/04/21 05:39:47;;;;;;;23.70;12.93;;;;;;;;;;5061804;28;20020;-70
2022/04/21 05:42:23;;;;;;;13.43;8.82;;;;;;;;;;5056795;28;20040;-71
2022/04/21 05:44:49;;;;;;;16.38;9.98;;;;;;;;;;5054613;28;20095;-70
2022/04/21 05:47:15;;;;;;;16.02;8.60;;;;;;;;;;5043137;28;20524;-69
2022/04/21 05:49:42;;;;;;;17.58;10.15;;;;;;;;;;5061093;28;20040;-70
2022/04/21 05:52:08;;;;;;;19.35;9.98;;;;;;;;;;5052617;28;20031;-70
2022/04/21 05:54:34;;;;;;;19.45;10.48;;;;;;;;;;5052506;28;20035;-70
2022/04/21 05:57:00;;;;;;;15.07;8.88;;;;;;;;;;5058651;28;20119;-69
2022/04/21 05:59:26;;;;;;;14.40;8.38;;;;;;;;;;5044832;28;20059;-70
2022/04/21 06:01:53;;;;;;;15.48;7.88;;;;;;;;;;5034315;28;20355;-71
2022/04/21 06:04:22;;;;;;;13.13;7.72;;;;;;;;;;5060996;28;20413;-69
2022/04/21 06:06:49;;;;;;;14.75;8.15;;;;;;;;;;5056526;28;20101;-70
2022/04/21 06:09:15;;;;;;;15.00;8.82;;;;;;;;;;5038038;28;20064;-70
2022/04/21 06:11:43;;;;;;;11.73;7.40;;;;;;;;;;5063731;28;20059;-70
2022/04/21 06:14:09;;;;;;;13.50;7.88;;;;;;;;;;5055012;28;20021;-69
2022/04/21 06:16:35;;;;;;;12.07;8.27;;;;;;;;;;5059559;28;20033;-70
2022/04/21 06:19:02;;;;;;;12.35;7.47;;;;;;;;;;5035035;28;20049;-69
2022/04/21 06:21:28;;;;;;;13.23;7.60;;;;;;;;;;5053593;28;20189;-70
2022/04/21 06:23:54;;;;;;;14.65;8.00;;;;;;;;;;5052690;28;20506;-70
2022/04/21 06:26:25;;;;;;;16.45;7.32;;;;;;;;;;5052564;28;20064;-70
2022/04/21 06:28:51;;;;;;;12.32;6.85;;;;;;;;;;5056849;28;20024;-70
2022/04/21 06:31:17;;;;;;;14.60;6.80;;;;;;;;;;5064227;28;20021;-70
2022/04/21 06:33:43;;;;;;;16.80;7.95;;;;;;;;;;5053221;28;20052;-70
2022/04/21 06:36:09;;;;;;;10.85;7.18;;;;;;;;;;5051866;28;21001;-70
2022/04/21 06:38:35;;;;;;;14.50;7.25;;;;;;;;;;5035148;28;20107;-70
2022/04/21 06:41:02;;;;;;;10.32;7.07;;;;;;;;;;5049286;28;20028;-70
2022/04/21 06:48:57;;;;;;;12.43;6.93;;;;;;;;;;5046318;28;20040;-70
2022/04/21 06:51:25;;;;;;;13.48;7.22;;;;;;;;;;5057692;28;20112;-70
2022/04/21 06:53:51;;;;;;;16.42;7.57;;;;;;;;;;5059456;28;20017;-69
2022/04/21 06:56:17;;;;;;;10.27;7.00;;;;;;;;;;5061711;28;20028;-70
2022/04/21 06:58:43;;;;;;;13.60;7.97;;;;;;;;;;5054433;28;20040;-70
2022/04/21 07:01:09;;;;;;;12.77;8.65;;;;;;;;;;5060651;28;20469;-70
2022/04/21 07:03:35;;;;;;;16.17;7.25;;;;;;;;;;5065792;28;20024;-70
2022/04/21 07:06:01;;;;;;;12.73;7.57;;;;;;;;;;5067916;28;20032;-71
2022/04/21 07:08:27;;;;;;;11.95;7.97;;;;;;;;;;5052825;28;20029;-70
2022/04/21 07:10:54;;;;;;;10.27;7.28;;;;;;;;;;5061994;28;20025;-70
2022/04/21 07:13:20;;;;;;;14.27;7.40;;;;;;;;;;5043538;28;20119;-70
2022/04/21 07:15:46;;;;;;;16.00;6.57;;;;;;;;;;5060619;28;20033;-70
2022/04/21 07:18:13;;;;;;;12.43;7.25;;;;;;;;;;5060509;28;20086;-70
2022/04/21 07:20:39;;;;;;;9.95;7.07;;;;;;;;;;5062032;28;20032;-70
2022/04/21 07:23:05;;;;;;;19.55;7.30;;;;;;;;;;5061981;28;20040;-70
2022/04/21 07:25:33;;;;;;;13.93;7.20;;;;;;;;;;5024633;28;20063;-72
2022/04/21 07:27:59;;;;;;;13.80;7.63;;;;;;;;;;5064977;28;20111;-70
2022/04/21 07:30:25;;;;;;;12.73;7.05;;;;;;;;;;5055912;28;20048;-70
2022/04/21 07:32:51;;;;;;;11.60;7.00;;;;;;;;;;5068494;28;20466;-70
2022/04/21 07:35:18;;;;;;;14.20;7.93;;;;;;;;;;5051180;28;20514;-70
2022/04/21 07:37:44;;;;;;;13.30;6.82;;;;;;;;;;5033346;28;20021;-71
2022/04/21 07:40:10;;;;;;;12.35;7.32;;;;;;;;;;5041278;28;20061;-70
2022/04/21 07:42:37;;;;;;;20.23;6.30;;;;;;;;;;5060741;28;20106;-70
2022/04/21 07:45:03;;;;;;;11.30;6.80;;;;;;;;;;5056434;28;20033;-70
2022/04/21 07:47:29;;;;;;;11.65;6.82;;;;;;;;;;5041694;28;20370;-69
2022/04/21 07:49:56;;;;;;;9.05;6.07;;;;;;;;;;5062338;28;20017;-71
2022/04/21 07:55:14;;;;;;;11.50;6.45;;;;;;;;;;5050806;28;20095;-71
2022/04/21 07:57:40;;;;;;;10.60;7.28;;;;;;;;;;5066435;28;20553;-71
2022/04/21 08:00:07;;;;;;;12.38;6.80;;;;;;;;;;5049693;28;20486;-71
2022/04/21 08:02:33;;;;;;;11.75;6.85;;;;;;;;;;5059420;28;20025;-72
2022/04/21 08:04:59;;;;;;;10.48;7.28;;;;;;;;;;5069981;28;20515;-70
2022/04/21 08:07:25;;;;;;;15.38;7.43;;;;;;;;;;5053717;28;20025;-74
2022/04/21 08:09:51;;;;;;;11.65;7.18;;;;;;;;;;5044525;28;20020;-71
2022/04/21 08:12:17;;;;;;;12.77;8.10;;;;;;;;;;5038520;28;20106;-71
2022/04/21 08:14:44;;;;;;;12.18;6.63;;;;;;;;;;5040295;28;20394;-71
2022/04/21 08:17:10;;;;;;;11.95;7.43;;;;;;;;;;5056537;28;20513;-71
2022/04/21 08:19:36;;;;;;;11.77;7.32;;;;;;;;;;5053620;28;20107;-71
2022/04/21 08:22:04;;;;;;;14.68;6.70;;;;;;;;;;5055920;28;20056;-71
2022/04/21 08:32:45;;;;;;;23.33;7.57;;;;;;;;;;5059526;28;20441;-71
2022/04/21 08:35:13;;;;;;;17.35;6.45;;;;;;;;;;5050003;28;20025;-70
2022/04/21 08:37:42;;;;;;;17.88;7.18;;;;;;;;;;5034722;28;20024;-71
2022/04/21 08:40:10;;;;;;;11.82;7.45;;;;;;;;;;5045530;28;20020;-73
2022/04/21 08:42:40;;;;;;;12.13;7.60;;;;;;;;;;5054102;28;20099;-71
2022/04/21 08:48:30;;;;;;;14.20;7.85;;;;;;;;;;4976504;28;20086;-71
2022/04/21 08:50:56;;;;;;;10.80;7.32;;;;;;;;;;4985324;28;20033;-71
2022/04/21 08:53:26;;;;;;;13.77;7.18;;;;;;;;;;4969106;28;20480;-71
2022/04/21 08:55:53;;;;;;;10.02;6.88;;;;;;;;;;4976032;28;20037;-71
2022/04/21 08:58:20;;;;;;;13.45;6.38;;;;;;;;;;4978589;28;20046;-71
2022/04/21 09:00:46;;;;;;;10.45;7.38;;;;;;;;;;4956311;28;20043;-71
2022/04/21 09:03:38;;;;;;;9.68;6.43;;;;;;;;;;4918141;29;20032;-71
2022/04/21 09:06:04;;;;;;;11.45;7.00;;;;;;;;;;4973019;28;20050;-71
2022/04/21 09:08:34;;;;;;;11.35;7.28;;;;;;;;;;4977488;28;20046;-71
2022/04/21 09:11:04;;;;;;;8.98;6.43;;;;;;;;;;4973614;28;20058;-71
2022/04/21 09:13:36;;;;;;;17.85;6.30;;;;;;;;;;4973231;28;20473;-71
2022/04/21 09:16:03;;;;;;;14.10;6.47;;;;;;;;;;4979627;28;20453;-71
2022/04/21 09:18:36;;;;;;;13.10;6.85;;;;;;;;;;4987648;28;20038;-73
2022/04/21 09:21:10;;;;;;;10.60;5.90;;;;;;;;;;4953724;28;20031;-71
2022/04/21 09:23:36;;;;;;;10.40;6.45;;;;;;;;;;4952961;28;20031;-70
2022/04/21 09:26:06;;;;;;;10.60;6.65;;;;;;;;;;5036852;28;20037;-72
2022/04/21 09:28:33;;;;;;;13.07;7.00;;;;;;;;;;5064990;28;20028;-71
2022/04/21 09:31:00;;;;;;;8.38;5.95;;;;;;;;;;5054336;28;20020;-70
2022/04/21 09:33:32;;;;;;;13.73;7.28;;;;;;;;;;5053965;28;20330;-71
2022/04/21 09:35:59;;;;;;;13.63;7.03;;;;;;;;;;5035394;28;20513;-72
2022/04/21 09:38:26;;;;;;;9.05;6.15;;;;;;;;;;5053993;28;20021;-71
2022/04/21 09:40:52;;;;;;;8.98;6.60;;;;;;;;;;5036524;28;20020;-71
2022/04/21 09:43:30;;;;;;;14.23;6.53;;;;;;;;;;5068683;28;20125;-71
2022/04/21 09:46:15;;;;;;;14.38;6.70;;;;;;;;;;5052288;28;20083;-72
2022/04/21 09:48:43;;;;;;;10.45;7.38;;;;;;;;;;5035957;28;20517;-71
2022/04/21 09:51:15;;;;;;;10.98;7.75;;;;;;;;;;5037095;28;20410;-71
2022/04/21 10:06:17;;;;;;;15.20;7.40;;;;;;;;;;5018403;28;20116;-70
2022/04/21 10:08:50;;;;;;;13.70;7.70;;;;;;;;;;4995843;28;20084;-71
2022/04/21 10:11:28;;;;;;;10.70;7.00;;;;;;;;;;5024573;28;20026;-71
2022/04/21 10:13:55;;;;;;;13.18;7.55;;;;;;;;;;5012874;28;20611;-71
2022/04/21 10:16:22;;;;;;;9.30;6.10;;;;;;;;;;4978473;28;20084;-71
2022/04/21 10:18:54;;;;;;;13.70;7.75;;;;;;;;;;5015674;28;20121;-71
2022/04/21 10:21:26;;;;;;;1.42;1.33;;;;;;;;;;5009491;28;20538;-72
2022/04/21 10:23:53;;;;;;;9.77;6.28;;;;;;;;;;5008391;28;20136;-71
2022/04/21 10:26:40;;;;;;;14.85;8.98;;;;;;;;;;5008675;28;20032;-70
2022/04/21 10:29:16;;;;;;;12.90;7.18;;;;;;;;;;5005810;28;20060;-71
2022/04/21 10:31:45;;;;;;;20.52;6.93;;;;;;;;;;5026688;28;20128;-72
2022/04/21 10:34:26;;;;;;;12.25;8.10;;;;;;;;;;5016625;28;20072;-71
2022/04/21 10:37:05;;;;;;;9.13;7.10;;;;;;;;;;5007877;28;20059;-71
2022/04/21 10:39:31;;;;;;;12.45;7.82;;;;;;;;;;5007286;28;20438;-71
2022/04/21 10:42:07;;;;;;;14.32;7.57;;;;;;;;;;5008386;28;20396;-71
2022/04/21 10:44:40;;;;;;;8.52;5.53;;;;;;;;;;4992932;28;20022;-71
2022/04/21 10:47:25;;;;;;;14.27;8.27;;;;;;;;;;5011738;28;20541;-71
2022/04/21 10:49:55;;;;;;;8.48;5.80;;;;;;;;;;5003846;28;20037;-70
2022/04/21 10:57:48;;;;;;;12.45;8.20;;;;;;;;;;5004500;28;20081;-70
2022/04/21 11:00:25;;;;;;;12.70;7.97;;;;;;;;;;5010692;28;20033;-71
2022/04/21 11:03:01;;;;;;;14.73;9.32;;;;;;;;;;5011269;28;20065;-70
2022/04/21 11:05:31;;;;;;;12.43;8.05;;;;;;;;;;5014220;28;20511;-71
2022/04/21 11:08:01;;;;;;;16.15;7.82;;;;;;;;;;4991927;28;20786;-71
2022/04/21 11:10:39;;;;;;;9.55;6.00;;;;;;;;;;5015390;28;20542;-71
2022/04/21 11:13:05;;;;;;;11.15;6.85;;;;;;;;;;5008878;28;20534;-71
2022/04/21 11:15:32;;;;;;;17.02;8.52;;;;;;;;;;5026368;28;20037;-71
2022/04/21 11:18:00;;;;;;;10.07;5.78;;;;;;;;;;5040514;28;20482;-71
2022/04/21 11:20:26;;;;;;;8.43;5.28;;;;;;;;;;5050688;28;20018;-70
2022/04/21 11:22:52;;;;;;;8.50;5.55;;;;;;;;;;5063451;28;20035;-70
2022/04/21 11:25:18;;;;;;;9.07;6.47;;;;;;;;;;5044837;28;20029;-71
2022/04/21 11:27:45;;;;;;;13.18;7.20;;;;;;;;;;5052154;28;20049;-70
2022/04/21 11:30:15;;;;;;;21.08;7.13;;;;;;;;;;5036590;28;20094;-71
2022/04/21 11:32:50;;;;;;;11.20;6.93;;;;;;;;;;5053389;28;20029;-71
2022/04/21 11:35:16;;;;;;;9.82;6.80;;;;;;;;;;5056778;28;20040;-71
2022/04/21 11:37:57;;;;;;;8.98;6.57;;;;;;;;;;5058531;28;20163;-70
2022/04/21 11:40:26;;;;;;;10.15;6.15;;;;;;;;;;5051296;28;20028;-71
2022/04/21 11:42:54;;;;;;;7.82;6.05;;;;;;;;;;5033742;28;20040;-71
2022/04/21 11:45:19;;;;;;;2.70;1.95;;;;;;;;;;5050578;28;20052;-71
2022/04/21 11:47:45;;;;;;;8.02;5.82;;;;;;;;;;5058165;28;20056;-70
2022/04/21 11:50:15;;;;;;;10.27;6.93;;;;;;;;;;5057621;28;20029;-71
2022/04/21 11:52:42;;;;;;;8.23;6.38;;;;;;;;;;5058431;28;20033;-71
2022/04/21 11:55:10;;;;;;;9.85;6.93;;;;;;;;;;5043631;28;20056;-71
2022/04/21 11:57:40;;;;;;;7.80;4.40;;;;;;;;;;5026843;28;20494;-71
2022/04/21 12:00:06;;;;;;;8.82;5.47;;;;;;;;;;5032669;28;20107;-72
2022/04/21 12:08:01;;;;;;;7.07;4.35;;;;;;;;;;5061360;28;20512;-72
2022/04/21 12:10:27;;;;;;;10.52;7.45;;;;;;;;;;5060759;28;20040;-72
2022/04/21 12:12:53;;;;;;;12.10;6.95;;;;;;;;;;5049964;28;20066;-72
2022/04/21 12:15:32;;;;;;;9.82;7.15;;;;;;;;;;5038517;28;20021;-71
2022/04/21 12:17:59;;;;;;;7.20;5.43;;;;;;;;;;5057977;28;20017;-71
2022/04/21 12:20:25;;;;;;;6.57;4.85;;;;;;;;;;5055233;28;20040;-72
2022/04/21 12:22:51;;;;;;;8.07;5.03;;;;;;;;;;5055221;28;20060;-72
2022/04/21 12:25:17;;;;;;;7.40;5.32;;;;;;;;;;5059091;28;20438;-71
2022/04/21 12:27:44;;;;;;;7.25;5.60;;;;;;;;;;5048483;28;20032;-72
2022/04/21 12:30:15;;;;;;;7.78;5.53;;;;;;;;;;5050293;28;20032;-71
2022/04/21 12:32:46;;;;;;;7.35;5.88;;;;;;;;;;5049295;28;20025;-71
2022/04/21 12:35:13;;;;;;;7.63;4.90;;;;;;;;;;5015812;28;20038;-71
2022/04/21 12:37:39;;;;;;;7.13;5.07;;;;;;;;;;5053238;28;20036;-71
2022/04/21 12:40:15;;;;;;;10.98;4.80;;;;;;;;;;5049049;28;20033;-71
2022/04/21 12:42:41;;;;;;;10.57;5.45;;;;;;;;;;5038886;28;20485;-74
2022/04/21 12:45:08;;;;;;;10.40;3.92;;;;;;;;;;5060592;28;20031;-71
2022/04/21 12:47:47;;;;;;;6.80;4.40;;;;;;;;;;5053009;28;20036;-71
2022/04/21 12:50:21;;;;;;;7.43;4.82;;;;;;;;;;5033221;28;20382;-71
2022/04/21 12:52:47;;;;;;;7.30;4.70;;;;;;;;;;5049900;28;20025;-72
2022/04/21 12:55:21;;;;;;;8.05;4.22;;;;;;;;;;5060088;28;20438;-71
2022/04/21 12:58:06;;;;;;;6.97;4.10;;;;;;;;;;5047886;28;20029;-71
2022/04/21 13:00:33;;;;;;;4.63;3.30;;;;;;;;;;5055314;28;20029;-71
2022/04/21 13:03:00;;;;;;;7.85;4.25;;;;;;;;;;5057494;28;20044;-71
2022/04/21 13:05:26;;;;;;;7.03;3.78;;;;;;;;;;5046717;28;20036;-72
2022/04/21 13:07:53;;;;;;;4.88;3.45;;;;;;;;;;5053936;28;20021;-71
2022/04/21 13:10:21;;;;;;;5.43;4.07;;;;;;;;;;5044170;28;20047;-72
2022/04/21 13:12:47;;;;;;;6.00;3.95;;;;;;;;;;5046852;28;20092;-71
2022/04/21 13:15:13;;;;;;;4.93;3.47;;;;;;;;;;5057117;28;20040;-71
2022/04/21 13:17:42;;;;;;;5.55;3.38;;;;;;;;;;5048119;28;20422;-71
2022/04/21 13:20:09;;;;;;;8.55;3.92;;;;;;;;;;5057069;28;20466;-71
2022/04/21 13:22:35;;;;;;;6.10;3.60;;;;;;;;;;5053559;28;20071;-72
2022/04/21 13:25:02;;;;;;;6.88;3.95;;;;;;;;;;5057446;28;20025;-70
2022/04/21 13:27:29;;;;;;;7.03;3.95;;;;;;;;;;5062164;28;20095;-71
2022/04/21 13:29:55;;;;;;;6.30;4.70;;;;;;;;;;5048737;28;20475;-73
2022/04/21 13:35:06;;;;;;;6.35;4.22;;;;;;;;;;5051389;28;20035;-72
2022/04/21 13:37:32;;;;;;;11.57;4.95;;;;;;;;;;5052231;28;20040;-71
2022/04/21 13:39:58;;;;;;;9.23;4.75;;;;;;;;;;5024787;28;20029;-72
2022/04/21 13:42:24;;;;;;;4.88;4.05;;;;;;;;;;5055826;28;20443;-71
2022/04/21 13:44:53;;;;;;;6.30;3.97;;;;;;;;;;5055482;28;20025;-70
2022/04/21 13:47:19;;;;;;;7.65;4.07;;;;;;;;;;5039073;28;20273;-71
2022/04/21 13:49:46;;;;;;;5.93;4.00;;;;;;;;;;5048885;28;20521;-71
2022/04/21 13:52:12;;;;;;;5.32;3.38;;;;;;;;;;5060455;28;20013;-71
2022/04/21 13:54:39;;;;;;;4.30;2.97;;;;;;;;;;5051600;28;20017;-71
2022/04/21 13:57:05;;;;;;;4.72;2.63;;;;;;;;;;5039741;28;20056;-71
2022/04/21 13:59:31;;;;;;;5.45;3.88;;;;;;;;;;5058751;28;20029;-71
2022/04/21 14:01:57;;;;;;;7.28;5.40;;;;;;;;;;5053135;28;20363;-71
2022/04/21 14:04:23;;;;;;;17.00;4.85;;;;;;;;;;5065590;28;20016;-71
2022/04/21 14:06:52;;;;;;;4.10;3.03;;;;;;;;;;5062550;28;20073;-71
2022/04/21 14:09:18;;;;;;;5.45;3.92;;;;;;;;;;5034363;28;20367;-70
2022/04/21 14:11:44;;;;;;;5.35;3.50;;;;;;;;;;5033206;28;20029;-71
2022/04/21 14:14:10;;;;;;;4.45;3.45;;;;;;;;;;5046503;28;20070;-70
2022/04/21 14:16:37;;;;;;;4.15;3.25;;;;;;;;;;5059423;28;20066;-71
2022/04/21 14:19:04;;;;;;;6.82;4.43;;;;;;;;;;5040667;28;20029;-71
2022/04/21 14:21:30;;;;;;;7.43;4.25;;;;;;;;;;5058601;28;20500;-71
2022/04/21 14:23:56;;;;;;;6.75;4.20;;;;;;;;;;5068212;28;20386;-71
2022/04/21 14:26:22;;;;;;;4.93;3.22;;;;;;;;;;5060278;28;20029;-71
2022/04/21 14:28:48;;;;;;;5.57;3.75;;;;;;;;;;5053859;28;20025;-72
2022/04/21 14:31:15;;;;;;;8.77;3.90;;;;;;;;;;5059239;28;20021;-71
2022/04/21 14:33:41;;;;;;;6.88;3.97;;;;;;;;;;5044356;28;20037;-72
2022/04/21 14:36:08;;;;;;;5.60;4.43;;;;;;;;;;5047265;28;20108;-71
2022/04/21 14:44:04;;;;;;;8.00;3.85;;;;;;;;;;5050245;28;20059;-71
2022/04/21 14:46:30;;;;;;;6.60;3.88;;;;;;;;;;5032390;28;20027;-71
2022/04/21 14:48:56;;;;;;;6.40;4.35;;;;;;;;;;5052740;28;20017;-71
2022/04/21 14:51:22;;;;;;;9.90;5.25;;;;;;;;;;5048600;28;20044;-71
2022/04/21 14:53:48;;;;;;;7.20;4.82;;;;;;;;;;5050426;28;20025;-72
2022/04/21 14:56:15;;;;;;;9.82;5.35;;;;;;;;;;5046647;28;20084;-71
2022/04/21 14:58:41;;;;;;;8.10;4.78;;;;;;;;;;5050479;28;20027;-71
2022/04/21 15:01:07;;;;;;;8.50;4.50;;;;;;;;;;5044610;28;20028;-70
2022/04/21 15:03:36;;;;;;;7.25;4.53;;;;;;;;;;5046483;28;20033;-73
2022/04/21 15:06:03;;;;;;;14.23;4.80;;;;;;;;;;5058448;28;20485;-72
2022/04/21 15:08:29;;;;;;;11.68;4.35;;;;;;;;;;5032232;28;20402;-72
2022/04/21 15:10:55;;;;;;;13.40;5.05;;;;;;;;;;5049622;28;20032;-75
2022/04/21 15:13:20;;;;;;;11.27;5.05;;;;;;;;;;5061105;28;20021;-73
2022/04/21 15:15:47;;;;;;;7.88;4.25;;;;;;;;;;5055185;28;20033;-73
2022/04/21 15:18:13;;;;;;;8.07;3.42;;;;;;;;;;5061424;28;20400;-74
2022/04/21 15:20:39;;;;;;;6.10;3.97;;;;;;;;;;5063800;28;20016;-73
2022/04/21 15:23:07;;;;;;;7.13;4.82;;;;;;;;;;5052712;28;20031;-74
2022/04/21 15:25:33;;;;;;;6.53;3.88;;;;;;;;;;5056313;28;20098;-74
2022/04/21 15:28:00;;;;;;;6.38;4.40;;;;;;;;;;5047004;28;20021;-72
2022/04/21 15:30:26;;;;;;;10.50;4.53;;;;;;;;;;5062574;28;20017;-72
2022/04/21 15:32:53;;;;;;;5.22;3.83;;;;;;;;;;5053715;28;20138;-73
2022/04/21 15:35:19;;;;;;;8.00;4.90;;;;;;;;;;5048659;28;20020;-73
2022/04/21 15:37:46;;;;;;;6.05;4.28;;;;;;;;;;5049250;28;20421;-73
2022/04/21 15:40:13;;;;;;;9.02;4.53;;;;;;;;;;5040895;28;20044;-71
2022/04/21 15:42:39;;;;;;;17.02;6.00;;;;;;;;;;5056157;28;20037;-73
2022/04/21 15:45:06;;;;;;;9.55;5.75;;;;;;;;;;5048720;28;20075;-73
2022/04/21 15:47:32;;;;;;;13.02;4.68;;;;;;;;;;5055256;28;20029;-73
2022/04/21 15:49:58;;;;;;;13.57;6.10;;;;;;;;;;5053072;28;20087;-72
2022/04/21 15:52:24;;;;;;;9.75;6.00;;;;;;;;;;5050241;28;20470;-74
2022/04/21 16:00:19;;;;;;;7.22;5.00;;;;;;;;;;5050903;28;20095;-74
2022/04/21 16:02:46;;;;;;;9.80;4.93;;;;;;;;;;5028566;28;20029;-73